sensor_id;sensor_type;location;lat;lon;timestamp;pressure;altitude;pressure_sealevel;temperature;humidity
8705;BME280;4389;41.932;25.904;2023-02-02T00:01:21;100646.94;;;0.47;91.55
8705;BME280;4389;41.932;25.904;2023-02-02T00:03:50;100638.41;;;0.43;91.80
8705;BME280;4389;41.932;25.904;2023-02-02T00:06:17;100636.63;;;0.64;92.98
8705;BME280;4389;41.932;25.904;2023-02-02T00:08:44;100623.44;;;0.85;92.32
8705;BME280;4389;41.932;25.904;2023-02-02T00:11:13;100621.50;;;1.07;91.59
8705;BME280;4389;41.932;25.904;2023-02-02T00:13:40;100632.06;;;1.04;91.31
8705;BME280;4389;41.932;25.904;2023-02-02T00:16:25;100639.50;;;1.12;90.76
8705;BME280;4389;41.932;25.904;2023-02-02T00:19:00;100636.94;;;1.29;90.54
8705;BME280;4389;41.932;25.904;2023-02-02T00:21:27;100643.16;;;1.26;90.30
8705;BME280;4389;41.932;25.904;2023-02-02T00:23:54;100640.47;;;1.28;90.10
8705;BME280;4389;41.932;25.904;2023-02-02T00:26:23;100627.34;;;1.29;89.72
8705;BME280;4389;41.932;25.904;2023-02-02T00:28:50;100627.22;;;1.32;89.94
8705;BME280;4389;41.932;25.904;2023-02-02T00:31:17;100632.28;;;1.35;90.12
8705;BME280;4389;41.932;25.904;2023-02-02T00:33:44;100640.84;;;1.37;89.47
8705;BME280;4389;41.932;25.904;2023-02-02T00:36:11;100629.31;;;1.43;89.56
8705;BME280;4389;41.932;25.904;2023-02-02T00:38:38;100630.94;;;1.27;89.57
8705;BME280;4389;41.932;25.904;2023-02-02T00:41:04;100632.56;;;1.29;89.94
8705;BME280;4389;41.932;25.904;2023-02-02T00:43:34;100640.66;;;1.06;89.34
8705;BME280;4389;41.932;25.904;2023-02-02T00:46:00;100635.16;;;1.12;88.38
8705;BME280;4389;41.932;25.904;2023-02-02T00:48:27;100634.81;;;1.01;88.98
8705;BME280;4389;41.932;25.904;2023-02-02T00:50:54;100630.25;;;0.88;88.44
8705;BME280;4389;41.932;25.904;2023-02-02T00:53:22;100630.56;;;0.63;88.89
8705;BME280;4389;41.932;25.904;2023-02-02T00:55:48;100635.00;;;0.04;90.33
8705;BME280;4389;41.932;25.904;2023-02-02T00:58:15;100630.56;;;-0.13;92.53
8705;BME280;4389;41.932;25.904;2023-02-02T01:00:43;100631.22;;;0.11;93.43
8705;BME280;4389;41.932;25.904;2023-02-02T01:03:10;100632.75;;;0.15;93.54
8705;BME280;4389;41.932;25.904;2023-02-02T01:05:38;100627.00;;;0.27;93.67
8705;BME280;4389;41.932;25.904;2023-02-02T01:08:05;100627.69;;;0.51;92.99
8705;BME280;4389;41.932;25.904;2023-02-02T01:10:32;100629.06;;;0.39;92.02
8705;BME280;4389;41.932;25.904;2023-02-02T01:12:59;100626.75;;;0.33;91.63
8705;BME280;4389;41.932;25.904;2023-02-02T01:15:26;100620.94;;;0.08;91.94
8705;BME280;4389;41.932;25.904;2023-02-02T01:17:56;100626.53;;;-0.01;92.57
8705;BME280;4389;41.932;25.904;2023-02-02T01:20:23;100624.84;;;-0.21;93.54
8705;BME280;4389;41.932;25.904;2023-02-02T01:22:50;100629.91;;;0.01;94.54
8705;BME280;4389;41.932;25.904;2023-02-02T01:25:18;100629.84;;;0.41;93.82
8705;BME280;4389;41.932;25.904;2023-02-02T01:27:44;100638.28;;;0.46;93.12
8705;BME280;4389;41.932;25.904;2023-02-02T01:30:12;100630.72;;;0.60;92.14
8705;BME280;4389;41.932;25.904;2023-02-02T01:32:39;100643.84;;;0.57;91.79
8705;BME280;4389;41.932;25.904;2023-02-02T01:35:07;100637.81;;;0.75;92.29
8705;BME280;4389;41.932;25.904;2023-02-02T01:37:34;100643.50;;;0.83;91.36
8705;BME280;4389;41.932;25.904;2023-02-02T01:40:01;100637.09;;;0.90;91.18
8705;BME280;4389;41.932;25.904;2023-02-02T01:42:28;100626.44;;;0.95;91.70
8705;BME280;4389;41.932;25.904;2023-02-02T01:45:22;100636.31;;;1.07;90.28
8705;BME280;4389;41.932;25.904;2023-02-02T01:47:53;100619.00;;;0.87;89.93
8705;BME280;4389;41.932;25.904;2023-02-02T01:50:23;100624.78;;;0.94;90.72
8705;BME280;4389;41.932;25.904;2023-02-02T01:52:53;100624.31;;;1.03;90.42
8705;BME280;4389;41.932;25.904;2023-02-02T01:55:22;100628.69;;;1.02;90.72
8705;BME280;4389;41.932;25.904;2023-02-02T01:57:55;100629.94;;;1.12;90.52
8705;BME280;4389;41.932;25.904;2023-02-02T02:00:22;100619.06;;;1.21;89.41
8705;BME280;4389;41.932;25.904;2023-02-02T02:02:54;100615.53;;;1.22;90.04
8705;BME280;4389;41.932;25.904;2023-02-02T02:05:27;100625.22;;;1.20;90.18
8705;BME280;4389;41.932;25.904;2023-02-02T02:08:00;100628.06;;;1.33;89.84
8705;BME280;4389;41.932;25.904;2023-02-02T02:10:28;100630.81;;;1.30;89.89
8705;BME280;4389;41.932;25.904;2023-02-02T02:12:55;100639.41;;;1.32;90.43
8705;BME280;4389;41.932;25.904;2023-02-02T02:15:23;100641.78;;;1.01;90.91
8705;BME280;4389;41.932;25.904;2023-02-02T02:18:21;100645.19;;;0.84;92.74
8705;BME280;4389;41.932;25.904;2023-02-02T02:31:05;100628.97;;;1.15;95.30
8705;BME280;4389;41.932;25.904;2023-02-02T02:33:45;100630.72;;;1.31;94.60
8705;BME280;4389;41.932;25.904;2023-02-02T02:36:18;100620.47;;;1.28;94.26
8705;BME280;4389;41.932;25.904;2023-02-02T02:38:49;100619.88;;;1.40;94.12
8705;BME280;4389;41.932;25.904;2023-02-02T02:41:20;100626.31;;;1.50;93.69
8705;BME280;4389;41.932;25.904;2023-02-02T02:43:50;100621.19;;;1.66;93.86
8705;BME280;4389;41.932;25.904;2023-02-02T02:46:19;100610.47;;;1.72;93.13
8705;BME280;4389;41.932;25.904;2023-02-02T02:48:47;100627.16;;;1.85;92.91
8705;BME280;4389;41.932;25.904;2023-02-02T02:51:37;100619.56;;;1.80;92.27
8705;BME280;4389;41.932;25.904;2023-02-02T02:54:06;100630.31;;;1.74;92.41
8705;BME280;4389;41.932;25.904;2023-02-02T02:56:41;100622.84;;;1.84;92.40
8705;BME280;4389;41.932;25.904;2023-02-02T02:59:15;100624.84;;;1.96;90.89
8705;BME280;4389;41.932;25.904;2023-02-02T03:01:52;100626.31;;;1.84;90.57
8705;BME280;4389;41.932;25.904;2023-02-02T03:04:28;100614.03;;;1.86;91.29
8705;BME280;4389;41.932;25.904;2023-02-02T03:07:01;100632.22;;;1.88;90.55
8705;BME280;4389;41.932;25.904;2023-02-02T03:09:33;100639.81;;;1.92;89.59
8705;BME280;4389;41.932;25.904;2023-02-02T03:12:02;100634.91;;;1.86;88.85
8705;BME280;4389;41.932;25.904;2023-02-02T03:14:33;100632.31;;;1.69;88.82
8705;BME280;4389;41.932;25.904;2023-02-02T03:17:00;100620.31;;;1.65;90.07
8705;BME280;4389;41.932;25.904;2023-02-02T03:19:28;100625.41;;;1.68;90.17
8705;BME280;4389;41.932;25.904;2023-02-02T03:21:55;100634.06;;;1.69;89.98
8705;BME280;4389;41.932;25.904;2023-02-02T03:24:22;100626.38;;;1.83;90.39
8705;BME280;4389;41.932;25.904;2023-02-02T03:26:49;100637.50;;;1.86;89.73
8705;BME280;4389;41.932;25.904;2023-02-02T03:29:16;100627.22;;;2.00;89.30
8705;BME280;4389;41.932;25.904;2023-02-02T03:31:44;100631.50;;;2.01;88.96
8705;BME280;4389;41.932;25.904;2023-02-02T03:34:11;100618.47;;;2.01;88.68
8705;BME280;4389;41.932;25.904;2023-02-02T03:36:39;100618.47;;;2.01;88.80
8705;BME280;4389;41.932;25.904;2023-02-02T03:39:06;100630.81;;;1.98;88.63
8705;BME280;4389;41.932;25.904;2023-02-02T03:41:33;100629.38;;;1.92;88.56
8705;BME280;4389;41.932;25.904;2023-02-02T03:44:00;100627.69;;;1.91;88.99
8705;BME280;4389;41.932;25.904;2023-02-02T03:46:27;100627.06;;;1.86;89.33
8705;BME280;4389;41.932;25.904;2023-02-02T03:48:54;100615.88;;;1.84;89.59
8705;BME280;4389;41.932;25.904;2023-02-02T03:51:21;100622.25;;;1.79;89.86
8705;BME280;4389;41.932;25.904;2023-02-02T03:53:49;100613.81;;;1.74;89.87
8705;BME280;4389;41.932;25.904;2023-02-02T03:56:16;100611.91;;;1.60;90.93
8705;BME280;4389;41.932;25.904;2023-02-02T03:58:43;100614.13;;;1.51;91.28
8705;BME280;4389;41.932;25.904;2023-02-02T04:01:12;100614.38;;;1.46;91.17
8705;BME280;4389;41.932;25.904;2023-02-02T04:03:40;100610.06;;;1.62;90.70
8705;BME280;4389;41.932;25.904;2023-02-02T04:06:07;100617.97;;;1.61;89.93
8705;BME280;4389;41.932;25.904;2023-02-02T04:08:34;100614.91;;;1.53;90.16
8705;BME280;4389;41.932;25.904;2023-02-02T04:11:02;100614.66;;;1.40;90.51
8705;BME280;4389;41.932;25.904;2023-02-02T04:13:29;100603.94;;;1.46;90.65
8705;BME280;4389;41.932;25.904;2023-02-02T04:15:57;100614.91;;;1.53;91.05
8705;BME280;4389;41.932;25.904;2023-02-02T04:18:24;100611.59;;;1.66;90.51
8705;BME280;4389;41.932;25.904;2023-02-02T04:20:55;100610.06;;;1.62;90.40
8705;BME280;4389;41.932;25.904;2023-02-02T04:23:22;100605.44;;;1.84;90.03
8705;BME280;4389;41.932;25.904;2023-02-02T04:25:49;100609.50;;;1.90;90.00
8705;BME280;4389;41.932;25.904;2023-02-02T04:28:18;100613.72;;;1.92;90.05
8705;BME280;4389;41.932;25.904;2023-02-02T04:30:45;100616.56;;;1.88;90.26
8705;BME280;4389;41.932;25.904;2023-02-02T04:33:12;100618.19;;;1.73;90.08
8705;BME280;4389;41.932;25.904;2023-02-02T04:35:38;100613.28;;;1.67;90.13
8705;BME280;4389;41.932;25.904;2023-02-02T04:38:05;100619.13;;;1.55;90.17
8705;BME280;4389;41.932;25.904;2023-02-02T04:40:32;100618.34;;;1.53;90.21
8705;BME280;4389;41.932;25.904;2023-02-02T04:42:59;100622.75;;;1.17;90.60
8705;BME280;4389;41.932;25.904;2023-02-02T04:45:27;100619.13;;;1.03;91.13
8705;BME280;4389;41.932;25.904;2023-02-02T04:47:54;100619.66;;;1.09;91.77
8705;BME280;4389;41.932;25.904;2023-02-02T04:50:21;100620.22;;;1.16;92.25
8705;BME280;4389;41.932;25.904;2023-02-02T04:52:48;100626.81;;;1.23;91.09
8705;BME280;4389;41.932;25.904;2023-02-02T04:55:15;100621.38;;;1.10;90.26
8705;BME280;4389;41.932;25.904;2023-02-02T04:57:42;100629.13;;;0.93;91.27
8705;BME280;4389;41.932;25.904;2023-02-02T05:00:10;100638.50;;;0.79;92.88
8705;BME280;4389;41.932;25.904;2023-02-02T05:02:39;100631.25;;;0.85;94.45
8705;BME280;4389;41.932;25.904;2023-02-02T05:05:09;100627.44;;;0.92;93.99
8705;BME280;4389;41.932;25.904;2023-02-02T05:07:36;100633.59;;;1.08;94.07
8705;BME280;4389;41.932;25.904;2023-02-02T05:10:05;100644.53;;;1.33;93.92
8705;BME280;4389;41.932;25.904;2023-02-02T05:12:33;100633.66;;;1.42;93.10
8705;BME280;4389;41.932;25.904;2023-02-02T05:14:59;100633.22;;;1.51;92.84
8705;BME280;4389;41.932;25.904;2023-02-02T05:17:28;100637.66;;;1.66;92.34
8705;BME280;4389;41.932;25.904;2023-02-02T05:19:56;100637.97;;;1.77;91.42
8705;BME280;4389;41.932;25.904;2023-02-02T05:22:23;100633.69;;;1.76;90.91
8705;BME280;4389;41.932;25.904;2023-02-02T05:24:50;100638.00;;;1.60;91.15
8705;BME280;4389;41.932;25.904;2023-02-02T05:27:16;100628.28;;;1.45;90.93
8705;BME280;4389;41.932;25.904;2023-02-02T05:29:45;100637.50;;;1.35;91.24
8705;BME280;4389;41.932;25.904;2023-02-02T05:32:12;100641.16;;;1.31;90.80
8705;BME280;4389;41.932;25.904;2023-02-02T05:34:39;100641.31;;;1.28;91.43
8705;BME280;4389;41.932;25.904;2023-02-02T05:37:07;100641.59;;;1.22;91.70
8705;BME280;4389;41.932;25.904;2023-02-02T05:39:34;100638.22;;;1.20;91.75
8705;BME280;4389;41.932;25.904;2023-02-02T05:42:00;100640.47;;;1.28;92.13
8705;BME280;4389;41.932;25.904;2023-02-02T05:44:27;100640.47;;;1.28;92.23
8705;BME280;4389;41.932;25.904;2023-02-02T05:46:54;100642.53;;;1.38;91.59
8705;BME280;4389;41.932;25.904;2023-02-02T05:49:21;100643.41;;;1.39;91.31
8705;BME280;4389;41.932;25.904;2023-02-02T05:51:50;100654.34;;;1.45;91.06
8705;BME280;4389;41.932;25.904;2023-02-02T05:54:18;100648.97;;;1.31;89.74
8705;BME280;4389;41.932;25.904;2023-02-02T05:56:46;100651.69;;;1.11;91.09
8705;BME280;4389;41.932;25.904;2023-02-02T05:59:13;100651.06;;;1.06;92.95
8705;BME280;4389;41.932;25.904;2023-02-02T06:01:40;100659.34;;;1.14;93.48
8705;BME280;4389;41.932;25.904;2023-02-02T06:04:06;100656.25;;;1.25;93.47
8705;BME280;4389;41.932;25.904;2023-02-02T06:06:33;100657.88;;;1.44;93.01
8705;BME280;4389;41.932;25.904;2023-02-02T06:09:02;100649.63;;;1.53;92.55
8705;BME280;4389;41.932;25.904;2023-02-02T06:11:31;100655.44;;;1.58;92.05
8705;BME280;4389;41.932;25.904;2023-02-02T06:13:57;100666.31;;;1.49;92.21
8705;BME280;4389;41.932;25.904;2023-02-02T06:16:24;100663.00;;;1.29;92.59
8705;BME280;4389;41.932;25.904;2023-02-02T06:18:52;100660.31;;;1.30;93.08
8705;BME280;4389;41.932;25.904;2023-02-02T06:21:19;100663.53;;;1.35;93.45
8705;BME280;4389;41.932;25.904;2023-02-02T06:23:47;100660.19;;;1.33;93.03
8705;BME280;4389;41.932;25.904;2023-02-02T06:26:15;100668.31;;;1.44;93.50
8705;BME280;4389;41.932;25.904;2023-02-02T06:28:48;100654.09;;;1.68;92.91
8705;BME280;4389;41.932;25.904;2023-02-02T06:31:15;100657.09;;;1.78;92.44
8705;BME280;4389;41.932;25.904;2023-02-02T06:33:43;100650.53;;;1.86;92.18
8705;BME280;4389;41.932;25.904;2023-02-02T06:36:10;100666.78;;;2.08;90.60
8705;BME280;4389;41.932;25.904;2023-02-02T06:38:37;100659.72;;;2.27;89.65
8705;BME280;4389;41.932;25.904;2023-02-02T06:41:04;100654.44;;;2.44;88.54
8705;BME280;4389;41.932;25.904;2023-02-02T06:43:32;100657.69;;;2.65;87.09
8705;BME280;4389;41.932;25.904;2023-02-02T06:46:00;100663.09;;;3.39;82.13
8705;BME280;4389;41.932;25.904;2023-02-02T06:48:27;100665.41;;;4.46;75.43
8705;BME280;4389;41.932;25.904;2023-02-02T06:50:56;100664.28;;;5.18;71.34
8705;BME280;4389;41.932;25.904;2023-02-02T06:53:23;100664.97;;;5.48;69.58
8705;BME280;4389;41.932;25.904;2023-02-02T06:55:54;100665.66;;;5.77;67.43
8705;BME280;4389;41.932;25.904;2023-02-02T06:58:21;100661.78;;;6.09;66.68
8705;BME280;4389;41.932;25.904;2023-02-02T07:00:48;100667.34;;;6.17;65.36
8705;BME280;4389;41.932;25.904;2023-02-02T07:03:17;100673.56;;;6.28;64.27
8705;BME280;4389;41.932;25.904;2023-02-02T07:05:45;100677.56;;;6.34;65.54
8705;BME280;4389;41.932;25.904;2023-02-02T07:08:12;100675.69;;;6.36;64.09
8705;BME280;4389;41.932;25.904;2023-02-02T07:10:39;100671.06;;;6.52;63.60
8705;BME280;4389;41.932;25.904;2023-02-02T07:13:07;100679.66;;;6.66;63.34
8705;BME280;4389;41.932;25.904;2023-02-02T07:15:34;100669.72;;;6.95;62.60
8705;BME280;4389;41.932;25.904;2023-02-02T07:18:03;100684.03;;;7.03;61.64
8705;BME280;4389;41.932;25.904;2023-02-02T07:20:32;100674.47;;;7.26;60.30
8705;BME280;4389;41.932;25.904;2023-02-02T07:22:58;100700.94;;;7.48;59.04
8705;BME280;4389;41.932;25.904;2023-02-02T07:25:26;100683.63;;;7.56;59.22
8705;BME280;4389;41.932;25.904;2023-02-02T07:27:53;100673.28;;;7.66;59.43
8705;BME280;4389;41.932;25.904;2023-02-02T07:30:20;100669.69;;;7.67;59.69
8705;BME280;4389;41.932;25.904;2023-02-02T07:32:47;100671.63;;;7.76;58.27
8705;BME280;4389;41.932;25.904;2023-02-02T07:35:14;100676.56;;;7.80;58.45
8705;BME280;4389;41.932;25.904;2023-02-02T07:37:43;100680.56;;;7.86;59.08
8705;BME280;4389;41.932;25.904;2023-02-02T07:40:11;100667.41;;;7.97;58.32
8705;BME280;4389;41.932;25.904;2023-02-02T07:42:37;100673.38;;;7.99;58.02
8705;BME280;4389;41.932;25.904;2023-02-02T07:45:06;100690.91;;;8.11;56.35
8705;BME280;4389;41.932;25.904;2023-02-02T07:47:33;100685.97;;;8.30;55.71
8705;BME280;4389;41.932;25.904;2023-02-02T07:50:00;100676.41;;;8.40;55.18
8705;BME280;4389;41.932;25.904;2023-02-02T07:52:28;100679.78;;;8.53;54.34
8705;BME280;4389;41.932;25.904;2023-02-02T07:54:56;100681.25;;;8.57;54.93
8705;BME280;4389;41.932;25.904;2023-02-02T07:57:23;100683.63;;;8.60;54.46
8705;BME280;4389;41.932;25.904;2023-02-02T07:59:50;100671.41;;;8.59;55.42
8705;BME280;4389;41.932;25.904;2023-02-02T08:02:18;100679.81;;;8.64;53.92
8705;BME280;4389;41.932;25.904;2023-02-02T08:04:45;100677.03;;;8.65;54.27
8705;BME280;4389;41.932;25.904;2023-02-02T08:07:12;100682.91;;;8.69;53.96
8705;BME280;4389;41.932;25.904;2023-02-02T08:09:38;100686.03;;;8.74;53.22
8705;BME280;4389;41.932;25.904;2023-02-02T08:12:07;100679.81;;;8.86;53.42
8705;BME280;4389;41.932;25.904;2023-02-02T08:14:33;100704.03;;;8.90;53.50
8705;BME280;4389;41.932;25.904;2023-02-02T08:17:00;100695.16;;;9.02;52.83
8705;BME280;4389;41.932;25.904;2023-02-02T08:19:27;100692.50;;;9.02;52.30
8705;BME280;4389;41.932;25.904;2023-02-02T08:21:54;100679.66;;;9.09;52.17
8705;BME280;4389;41.932;25.904;2023-02-02T08:24:21;100682.78;;;9.25;51.38
8705;BME280;4389;41.932;25.904;2023-02-02T08:26:48;100676.53;;;9.26;51.21
8705;BME280;4389;41.932;25.904;2023-02-02T08:29:16;100672.31;;;9.34;51.13
8705;BME280;4389;41.932;25.904;2023-02-02T08:31:43;100676.25;;;9.40;51.56
8705;BME280;4389;41.932;25.904;2023-02-02T08:34:11;100681.38;;;9.52;50.69
8705;BME280;4389;41.932;25.904;2023-02-02T08:36:39;100679.94;;;9.59;50.92
8705;BME280;4389;41.932;25.904;2023-02-02T08:39:09;100695.16;;;9.67;50.18
8705;BME280;4389;41.932;25.904;2023-02-02T08:41:37;100669.56;;;9.67;48.98
8705;BME280;4389;41.932;25.904;2023-02-02T08:44:05;100672.41;;;9.75;49.91
8705;BME280;4389;41.932;25.904;2023-02-02T08:46:33;100675.25;;;9.83;50.11
8705;BME280;4389;41.932;25.904;2023-02-02T08:49:00;100669.47;;;9.89;48.39
8705;BME280;4389;41.932;25.904;2023-02-02T08:51:27;100689.88;;;9.98;49.97
8705;BME280;4389;41.932;25.904;2023-02-02T08:53:53;100689.03;;;10.09;47.39
8705;BME280;4389;41.932;25.904;2023-02-02T08:56:21;100689.16;;;10.07;47.38
8705;BME280;4389;41.932;25.904;2023-02-02T08:58:50;100697.91;;;10.08;46.93
8705;BME280;4389;41.932;25.904;2023-02-02T09:01:18;100692.25;;;10.12;46.15
8705;BME280;4389;41.932;25.904;2023-02-02T09:03:47;100694.16;;;10.10;45.84
8705;BME280;4389;41.932;25.904;2023-02-02T09:06:16;100698.31;;;10.24;46.42
8705;BME280;4389;41.932;25.904;2023-02-02T09:08:44;100687.00;;;10.22;46.39
8705;BME280;4389;41.932;25.904;2023-02-02T09:11:12;100693.72;;;10.26;44.92
8705;BME280;4389;41.932;25.904;2023-02-02T09:13:41;100686.84;;;10.34;45.82
8705;BME280;4389;41.932;25.904;2023-02-02T09:16:11;100703.41;;;10.36;46.23
8705;BME280;4389;41.932;25.904;2023-02-02T09:18:38;100675.47;;;10.43;46.23
8705;BME280;4389;41.932;25.904;2023-02-02T09:21:09;100690.31;;;10.55;44.77
8705;BME280;4389;41.932;25.904;2023-02-02T09:23:37;100668.88;;;10.58;45.74
8705;BME280;4389;41.932;25.904;2023-02-02T09:26:08;100663.75;;;10.66;45.05
8705;BME280;4389;41.932;25.904;2023-02-02T09:28:36;100667.81;;;10.70;44.97
8705;BME280;4389;41.932;25.904;2023-02-02T09:31:03;100653.09;;;10.77;44.80
8705;BME280;4389;41.932;25.904;2023-02-02T09:33:31;100669.84;;;10.87;44.92
8705;BME280;4389;41.932;25.904;2023-02-02T09:36:03;100665.59;;;11.05;44.45
8705;BME280;4389;41.932;25.904;2023-02-02T09:38:32;100659.28;;;10.97;43.26
8705;BME280;4389;41.932;25.904;2023-02-02T09:40:59;100656.84;;;11.14;43.95
8705;BME280;4389;41.932;25.904;2023-02-02T09:43:35;100639.88;;;11.26;44.20
8705;BME280;4389;41.932;25.904;2023-02-02T09:46:12;100644.31;;;11.16;43.47
8705;BME280;4389;41.932;25.904;2023-02-02T09:48:50;100643.16;;;11.09;42.70
8705;BME280;4389;41.932;25.904;2023-02-02T09:51:22;100641.22;;;11.11;42.98
8705;BME280;4389;41.932;25.904;2023-02-02T09:53:55;100632.72;;;11.17;43.46
8705;BME280;4389;41.932;25.904;2023-02-02T09:56:28;100631.75;;;11.18;42.61
8705;BME280;4389;41.932;25.904;2023-02-02T09:58:59;100640.97;;;11.14;41.93
8705;BME280;4389;41.932;25.904;2023-02-02T10:01:30;100625.13;;;11.33;41.68
8705;BME280;4389;41.932;25.904;2023-02-02T10:04:03;100620.78;;;11.32;41.59
8705;BME280;4389;41.932;25.904;2023-02-02T10:06:35;100624.28;;;11.33;40.26
8705;BME280;4389;41.932;25.904;2023-02-02T10:09:16;100621.72;;;11.12;40.78
8705;BME280;4389;41.932;25.904;2023-02-02T10:11:50;100620.91;;;11.21;40.18
8705;BME280;4389;41.932;25.904;2023-02-02T10:14:24;100616.59;;;11.20;41.13
8705;BME280;4389;41.932;25.904;2023-02-02T10:16:54;100613.25;;;11.28;40.23
8705;BME280;4389;41.932;25.904;2023-02-02T10:19:23;100595.56;;;11.38;41.00
8705;BME280;4389;41.932;25.904;2023-02-02T10:21:59;100591.63;;;11.32;40.42
8705;BME280;4389;41.932;25.904;2023-02-02T10:24:32;100587.75;;;11.36;40.00
8705;BME280;4389;41.932;25.904;2023-02-02T10:27:03;100579.69;;;11.47;41.40
8705;BME280;4389;41.932;25.904;2023-02-02T10:29:39;100573.41;;;11.48;40.20
8705;BME280;4389;41.932;25.904;2023-02-02T10:32:13;100579.50;;;11.39;40.96
8705;BME280;4389;41.932;25.904;2023-02-02T10:34:57;100568.22;;;11.37;41.53
8705;BME280;4389;41.932;25.904;2023-02-02T10:37:30;100569.88;;;11.38;39.54
8705;BME280;4389;41.932;25.904;2023-02-02T10:40:24;100560.41;;;11.45;40.11
8705;BME280;4389;41.932;25.904;2023-02-02T10:43:14;100566.00;;;11.61;40.24
8705;BME280;4389;41.932;25.904;2023-02-02T10:46:04;100560.72;;;11.61;37.22
8705;BME280;4389;41.932;25.904;2023-02-02T10:48:34;100563.66;;;11.58;39.40
8705;BME280;4389;41.932;25.904;2023-02-02T10:51:05;100572.44;;;11.59;38.16
8705;BME280;4389;41.932;25.904;2023-02-02T10:53:36;100556.78;;;11.56;39.54
8705;BME280;4389;41.932;25.904;2023-02-02T10:56:07;100546.22;;;11.65;38.95
8705;BME280;4389;41.932;25.904;2023-02-02T10:58:39;100554.41;;;11.81;40.31
8705;BME280;4389;41.932;25.904;2023-02-02T11:01:09;100553.13;;;12.04;38.42
8705;BME280;4389;41.932;25.904;2023-02-02T11:03:37;100555.31;;;12.18;39.05
8705;BME280;4389;41.932;25.904;2023-02-02T11:06:06;100551.50;;;11.94;37.26
8705;BME280;4389;41.932;25.904;2023-02-02T11:08:52;100548.97;;;11.92;37.23
8705;BME280;4389;41.932;25.904;2023-02-02T11:11:26;100547.53;;;12.07;38.20
8705;BME280;4389;41.932;25.904;2023-02-02T11:14:00;100542.22;;;12.07;37.42
8705;BME280;4389;41.932;25.904;2023-02-02T11:16:29;100565.78;;;12.20;37.02
8705;BME280;4389;41.932;25.904;2023-02-02T11:18:56;100527.63;;;12.30;34.94
8705;BME280;4389;41.932;25.904;2023-02-02T11:21:25;100533.34;;;12.35;35.26
8705;BME280;4389;41.932;25.904;2023-02-02T11:23:54;100526.75;;;12.39;34.67
8705;BME280;4389;41.932;25.904;2023-02-02T11:26:23;100533.22;;;12.27;34.59
8705;BME280;4389;41.932;25.904;2023-02-02T11:28:53;100510.13;;;12.37;36.58
8705;BME280;4389;41.932;25.904;2023-02-02T11:31:32;100499.84;;;12.61;37.46
8705;BME280;4389;41.932;25.904;2023-02-02T11:34:24;100513.22;;;12.69;34.89
8705;BME280;4389;41.932;25.904;2023-02-02T11:36:58;100499.00;;;12.61;37.02
8705;BME280;4389;41.932;25.904;2023-02-02T11:39:25;100500.78;;;12.87;37.94
8705;BME280;4389;41.932;25.904;2023-02-02T11:42:01;100512.31;;;12.78;37.61
8705;BME280;4389;41.932;25.904;2023-02-02T11:44:31;100497.94;;;12.98;37.88
8705;BME280;4389;41.932;25.904;2023-02-02T11:47:01;100501.84;;;12.94;36.47
8705;BME280;4389;41.932;25.904;2023-02-02T11:49:31;100481.41;;;13.04;36.45
8705;BME280;4389;41.932;25.904;2023-02-02T11:52:00;100479.13;;;13.09;36.33
8705;BME280;4389;41.932;25.904;2023-02-02T11:54:30;100476.25;;;13.03;35.15
8705;BME280;4389;41.932;25.904;2023-02-02T11:57:00;100477.94;;;12.77;34.87
8705;BME280;4389;41.932;25.904;2023-02-02T11:59:31;100475.66;;;12.82;35.61
8705;BME280;4389;41.932;25.904;2023-02-02T12:02:29;100486.34;;;12.72;34.08
8705;BME280;4389;41.932;25.904;2023-02-02T12:05:32;100466.22;;;12.70;35.31
8705;BME280;4389;41.932;25.904;2023-02-02T12:07:59;100466.84;;;12.81;35.41
8705;BME280;4389;41.932;25.904;2023-02-02T12:10:29;100458.88;;;12.81;34.95
8705;BME280;4389;41.932;25.904;2023-02-02T12:13:04;100459.88;;;12.80;35.72
8705;BME280;4389;41.932;25.904;2023-02-02T12:15:45;100452.69;;;12.90;33.96
8705;BME280;4389;41.932;25.904;2023-02-02T12:18:23;100446.22;;;12.93;35.09
8705;BME280;4389;41.932;25.904;2023-02-02T12:20:58;100440.66;;;12.96;36.05
8705;BME280;4389;41.932;25.904;2023-02-02T12:23:37;100454.38;;;13.26;35.75
8705;BME280;4389;41.932;25.904;2023-02-02T12:26:20;100431.75;;;13.22;34.73
8705;BME280;4389;41.932;25.904;2023-02-02T12:32:01;100437.66;;;12.81;36.12
8705;BME280;4389;41.932;25.904;2023-02-02T12:34:39;100436.66;;;12.65;37.35
8705;BME280;4389;41.932;25.904;2023-02-02T12:37:12;100425.81;;;12.58;37.71
8705;BME280;4389;41.932;25.904;2023-02-02T12:39:53;100435.16;;;12.62;38.20
8705;BME280;4389;41.932;25.904;2023-02-02T12:42:38;100422.94;;;12.69;37.76
8705;BME280;4389;41.932;25.904;2023-02-02T12:45:19;100436.81;;;12.81;37.38
8705;BME280;4389;41.932;25.904;2023-02-02T12:47:58;100439.03;;;12.85;36.57
8705;BME280;4389;41.932;25.904;2023-02-02T12:50:35;100421.59;;;13.00;36.80
8705;BME280;4389;41.932;25.904;2023-02-02T12:53:16;100425.25;;;12.99;36.47
8705;BME280;4389;41.932;25.904;2023-02-02T12:55:50;100417.56;;;12.96;36.53
8705;BME280;4389;41.932;25.904;2023-02-02T12:58:29;100419.41;;;13.13;37.72
8705;BME280;4389;41.932;25.904;2023-02-02T13:01:21;100419.53;;;12.94;37.38
8705;BME280;4389;41.932;25.904;2023-02-02T13:04:02;100414.13;;;12.86;37.66
8705;BME280;4389;41.932;25.904;2023-02-02T13:06:57;100416.03;;;12.94;37.97
8705;BME280;4389;41.932;25.904;2023-02-02T13:09:29;100408.78;;;12.96;36.79
8705;BME280;4389;41.932;25.904;2023-02-02T13:12:01;100409.06;;;13.10;36.22
8705;BME280;4389;41.932;25.904;2023-02-02T13:14:33;100401.63;;;13.14;36.43
8705;BME280;4389;41.932;25.904;2023-02-02T13:17:18;100407.44;;;13.17;36.38
8705;BME280;4389;41.932;25.904;2023-02-02T13:19:50;100404.56;;;13.28;36.28
8705;BME280;4389;41.932;25.904;2023-02-02T13:22:23;100398.72;;;13.25;35.93
8705;BME280;4389;41.932;25.904;2023-02-02T13:24:54;100399.88;;;13.22;36.48
8705;BME280;4389;41.932;25.904;2023-02-02T13:27:24;100397.47;;;13.11;36.78
8705;BME280;4389;41.932;25.904;2023-02-02T13:29:55;100395.78;;;13.10;37.23
8705;BME280;4389;41.932;25.904;2023-02-02T13:32:25;100396.94;;;13.08;37.07
8705;BME280;4389;41.932;25.904;2023-02-02T13:34:58;100391.44;;;13.09;37.85
8705;BME280;4389;41.932;25.904;2023-02-02T13:37:30;100386.59;;;13.05;37.07